Time;durP1;ratioP1;P1;durP2;ratioP2;P2;SDS_P1;SDS_P2;PMS_P1;PMS_P2;Temp;Humidity;BMP_temperature;BMP_pressure;BME280_temperature;BME280_humidity;BME280_pressure;Samples;Min_cycle;Max_cycle;Signal;HPM_P1;HPM_P2
2022/04/05 00:00:01;;;;;;;;;;;;;;;22.43;23.35;97836.50;4974647;28;1922;-76
2022/04/05 00:02:30;;;;;;;;;;;;;;;21.76;24.15;97835.34;4974687;28;915;-76
2022/04/05 00:04:55;;;;;;;;;;;;;;;21.59;24.09;97830.97;4974851;28;1135;-76
2022/04/05 00:07:20;;;;;;;;;;;;;;;21.39;24.75;97827.50;4958387;28;1038;-77
2022/04/05 00:09:46;;;;;;;;;;;;;;;21.87;24.04;97822.88;4974753;28;1040;-76
2022/04/05 00:12:12;;;;;;;;;;;;;;;22.36;23.54;97815.66;4936082;29;998;-75
2022/04/05 00:14:37;;;;;;;;;;;;;;;22.43;23.05;97814.63;4936322;29;1086;-76
2022/04/05 00:17:03;;;;;;;;;;;;;;;21.84;24.09;97811.19;4936104;29;1081;-76
2022/04/05 00:19:29;;;;;;;;;;;;;;;21.56;24.14;97809.25;4936087;29;1978;-77
2022/04/05 00:21:54;;;;;;;;;;;;;;;21.48;24.67;97807.84;4935988;29;1032;-76
2022/04/05 00:24:20;;;;;;;;;;;;;;;21.91;24.11;97803.72;4936228;29;965;-75
2022/04/05 00:26:46;;;;;;;;;;;;;;;22.22;23.73;97790.59;4935868;29;893;-76
2022/04/05 00:29:11;;;;;;;;;;;;;;;22.23;23.34;97800.72;4935981;29;978;-76
2022/04/05 00:31:37;;;;;;;;;;;;;;;21.79;23.99;97806.09;4963398;28;1069;-75
2022/04/05 00:34:02;;;;;;;;;;;;;;;21.72;24.25;97799.88;4974412;28;1303;-76
2022/04/05 00:36:27;;;;;;;;;;;;;;;21.57;24.53;97810.81;4974473;28;1160;-76
2022/04/05 00:38:53;;;;;;;;;;;;;;;22.07;23.83;97803.63;4974273;28;1906;-77
2022/04/05 00:41:18;;;;;;;;;;;;;;;22.29;23.41;97804.56;4974379;28;1065;-75
2022/04/05 00:43:44;;;;;;;;;;;;;;;22.25;23.19;97795.38;5004601;28;909;-75
2022/04/05 00:46:09;;;;;;;;;;;;;;;21.80;23.93;97802.00;5016214;28;1027;-76
2022/04/05 00:48:35;;;;;;;;;;;;;;;21.61;24.34;97794.53;5015997;28;970;-75
2022/04/05 00:51:00;;;;;;;;;;;;;;;21.47;24.53;97794.94;5015445;28;1077;-76
2022/04/05 00:53:26;;;;;;;;;;;;;;;21.91;23.99;97783.88;5015674;28;954;-76
2022/04/05 00:55:52;;;;;;;;;;;;;;;22.47;23.26;97783.31;4997983;28;1094;-76
2022/04/05 00:58:17;;;;;;;;;;;;;;;22.26;23.30;97774.28;5015457;28;1890;-76
2022/04/05 01:00:42;;;;;;;;;;;;;;;21.74;23.95;97780.38;4980760;28;988;-75
2022/04/05 01:03:08;;;;;;;;;;;;;;;21.39;24.71;97776.56;4998229;28;1057;-76
2022/04/05 01:05:34;;;;;;;;;;;;;;;21.44;24.65;97776.00;4997945;28;891;-76
2022/04/05 01:07:59;;;;;;;;;;;;;;;22.07;23.54;97775.28;4998123;28;925;-75
2022/04/05 01:10:26;;;;;;;;;;;;;;;22.38;23.22;97766.22;5015131;28;954;-76
2022/04/05 01:12:51;;;;;;;;;;;;;;;22.25;23.34;97767.03;5015440;28;940;-76
2022/04/05 01:15:16;;;;;;;;;;;;;;;21.84;24.11;97777.22;4996861;28;1059;-76
2022/04/05 01:17:42;;;;;;;;;;;;;;;21.54;24.08;97778.53;5015263;28;1902;-76
2022/04/05 01:20:08;;;;;;;;;;;;;;;21.52;24.30;97774.56;5015140;28;998;-76
2022/04/05 01:22:33;;;;;;;;;;;;;;;22.00;23.60;97775.53;5015736;28;963;-76
2022/04/05 01:24:58;;;;;;;;;;;;;;;22.23;23.44;97766.72;5015581;28;1012;-76
2022/04/05 01:27:27;;;;;;;;;;;;;;;22.24;23.46;97768.28;5015179;28;1227;-75
2022/04/05 01:29:53;;;;;;;;;;;;;;;21.59;24.42;97768.69;5015180;28;1128;-75
2022/04/05 01:32:18;;;;;;;;;;;;;;;21.52;24.56;97758.38;5015192;28;970;-76
2022/04/05 01:34:44;;;;;;;;;;;;;;;21.52;24.62;97754.75;5015600;28;960;-76
2022/04/05 01:37:10;;;;;;;;;;;;;;;21.97;23.75;97736.78;5014976;28;1038;-77
2022/04/05 01:39:36;;;;;;;;;;;;;;;22.33;23.45;97742.09;5015124;28;1910;-75
2022/04/05 01:42:05;;;;;;;;;;;;;;;21.82;23.72;97747.78;5015778;28;962;-77
2022/04/05 01:44:31;;;;;;;;;;;;;;;21.47;24.50;97749.66;4967637;28;989;-75
2022/04/05 01:46:57;;;;;;;;;;;;;;;21.39;24.70;97743.41;5019178;28;1094;-76
2022/04/05 01:49:22;;;;;;;;;;;;;;;22.02;24.06;97733.34;5018757;28;1207;-76
2022/04/05 01:51:48;;;;;;;;;;;;;;;22.40;23.44;97738.22;5018853;28;897;-76
2022/04/05 01:54:14;;;;;;;;;;;;;;;22.41;23.21;97734.13;5018684;28;1055;-76
2022/04/05 01:56:40;;;;;;;;;;;;;;;22.47;23.12;97735.13;5018454;28;954;-76
2022/04/05 01:59:06;;;;;;;;;;;;;;;21.98;23.69;97727.03;5018198;28;1989;-76
2022/04/05 02:01:31;;;;;;;;;;;;;;;21.67;24.12;97741.75;5001297;28;915;-76
2022/04/05 02:03:57;;;;;;;;;;;;;;;21.52;24.25;97734.94;5018847;28;930;-76
2022/04/05 02:06:23;;;;;;;;;;;;;;;21.63;24.46;97734.59;5018477;28;955;-76
2022/04/05 02:08:48;;;;;;;;;;;;;;;21.66;24.45;97734.50;5001018;28;941;-76
2022/04/05 02:11:14;;;;;;;;;;;;;;;21.63;24.34;97721.25;5018063;28;965;-76
2022/04/05 02:13:41;;;;;;;;;;;;;;;21.97;23.90;97714.13;5000495;28;1404;-75
2022/04/05 02:16:07;;;;;;;;;;;;;;;22.21;23.77;97718.19;4976483;28;1301;-77
2022/04/05 02:18:34;;;;;;;;;;;;;;;22.41;23.50;97722.78;4976495;28;1973;-76
2022/04/05 02:21:00;;;;;;;;;;;;;;;21.79;24.17;97726.00;4976764;28;1050;-77
2022/04/05 02:23:27;;;;;;;;;;;;;;;21.59;24.37;97723.38;4976524;28;1471;-76
2022/04/05 02:26:04;;;;;;;;;;;;;;;21.45;24.71;97723.81;4976661;28;1031;-75
2022/04/05 02:28:34;;;;;;;;;;;;;;;22.09;23.71;97722.59;4960528;28;1123;-76
2022/04/05 02:31:05;;;;;;;;;;;;;;;22.41;23.17;97722.78;4976524;28;1065;-75
2022/04/05 02:33:34;;;;;;;;;;;;;;;21.76;23.97;97715.56;4937681;29;1115;-76
2022/04/05 02:36:05;;;;;;;;;;;;;;;21.55;24.43;97722.69;4937845;29;1188;-75
2022/04/05 02:38:31;;;;;;;;;;;;;;;21.35;24.79;97724.94;4937684;29;1919;-77
2022/04/05 02:40:59;;;;;;;;;;;;;;;21.83;24.32;97716.16;4937776;29;1136;-75
2022/04/05 02:43:26;;;;;;;;;;;;;;;22.20;23.45;97718.63;4918625;29;1192;-76
2022/04/05 02:45:55;;;;;;;;;;;;;;;22.34;23.31;97718.16;4918364;29;1240;-75
2022/04/05 02:48:22;;;;;;;;;;;;;;;22.17;23.31;97723.16;4937344;29;1435;-76
2022/04/05 02:50:49;;;;;;;;;;;;;;;21.67;24.05;97724.75;4937616;29;1137;-76
2022/04/05 02:53:15;;;;;;;;;;;;;;;21.52;24.46;97724.41;4936901;29;1043;-75
2022/04/05 02:55:42;;;;;;;;;;;;;;;21.87;24.29;97720.91;4937224;29;1160;-76
2022/04/05 02:58:09;;;;;;;;;;;;;;;22.16;23.66;97717.97;4937194;29;1993;-76
2022/04/05 03:00:36;;;;;;;;;;;;;;;22.34;23.30;97713.28;4937322;29;1428;-76
2022/04/05 03:03:07;;;;;;;;;;;;;;;21.76;24.16;97707.91;4937191;29;1420;-75
2022/04/05 03:05:33;;;;;;;;;;;;;;;21.64;24.37;97703.00;4958048;28;1138;-76
2022/04/05 03:08:04;;;;;;;;;;;;;;;21.39;24.59;97708.63;4960166;28;1467;-76
2022/04/05 03:10:32;;;;;;;;;;;;;;;22.01;23.94;97703.44;4975636;28;1349;-76
2022/04/05 03:13:00;;;;;;;;;;;;;;;22.30;23.79;97697.66;4959722;28;1491;-75
2022/04/05 03:15:27;;;;;;;;;;;;;;;22.42;23.45;97690.34;4996148;28;1241;-76
2022/04/05 03:17:55;;;;;;;;;;;;;;;21.76;23.96;97699.41;4999649;28;1993;-76
2022/04/05 03:20:22;;;;;;;;;;;;;;;21.57;24.64;97701.19;4999804;28;1096;-77
2022/04/05 03:22:51;;;;;;;;;;;;;;;21.44;24.86;97696.75;4999947;28;1313;-76
2022/04/05 03:25:17;;;;;;;;;;;;;;;22.04;23.83;97686.34;4999800;28;965;-75
2022/04/05 03:27:43;;;;;;;;;;;;;;;22.29;23.60;97685.53;4999568;28;1325;-76
2022/04/05 03:30:14;;;;;;;;;;;;;;;22.36;23.36;97673.94;5015602;28;1626;-76
2022/04/05 03:32:40;;;;;;;;;;;;;;;21.78;24.22;97679.13;4999468;28;1255;-75
2022/04/05 03:35:06;;;;;;;;;;;;;;;21.62;24.39;97688.53;5016572;28;984;-76
2022/04/05 03:37:32;;;;;;;;;;;;;;;21.70;24.52;97689.84;5015736;28;1275;-76
2022/04/05 03:39:59;;;;;;;;;;;;;;;22.17;23.86;97683.50;4975132;28;1902;-76
2022/04/05 03:42:26;;;;;;;;;;;;;;;22.40;23.50;97681.53;4917282;29;1157;-75
2022/04/05 03:44:51;;;;;;;;;;;;;;;21.94;23.80;97686.69;4917865;29;1345;-75
2022/04/05 03:47:17;;;;;;;;;;;;;;;21.75;23.98;97685.66;4917567;29;1265;-76
2022/04/05 03:49:43;;;;;;;;;;;;;;;21.44;24.62;97688.28;4901674;29;1120;-76
2022/04/05 03:52:09;;;;;;;;;;;;;;;21.62;24.61;97688.53;4917547;29;1125;-76
2022/04/05 03:54:36;;;;;;;;;;;;;;;22.11;23.81;97691.00;4917633;29;1148;-76
2022/04/05 03:57:06;;;;;;;;;;;;;;;22.18;23.72;97690.75;4917328;29;1247;-76
2022/04/05 03:59:33;;;;;;;;;;;;;;;21.74;24.15;97687.72;4898287;29;1907;-76
2022/04/05 04:01:59;;;;;;;;;;;;;;;21.67;24.32;97690.78;4898417;29;1186;-75
2022/04/05 04:04:25;;;;;;;;;;;;;;;21.44;24.89;97699.59;4898755;29;1259;-75
2022/04/05 04:06:51;;;;;;;;;;;;;;;21.89;24.36;97690.88;4898193;29;1031;-77
2022/04/05 04:09:17;;;;;;;;;;;;;;;22.19;23.58;97692.34;4882468;29;1323;-76
2022/04/05 04:11:44;;;;;;;;;;;;;;;22.35;23.53;97689.34;4898413;29;1201;-77
2022/04/05 04:14:11;;;;;;;;;;;;;;;21.83;24.25;97687.03;4870574;29;1418;-76
2022/04/05 04:16:37;;;;;;;;;;;;;;;21.65;24.33;97693.25;4863827;29;1303;-76
2022/04/05 04:19:02;;;;;;;;;;;;;;;21.56;24.59;97684.66;4889165;29;1973;-76
2022/04/05 04:21:31;;;;;;;;;;;;;;;21.74;24.52;97690.53;4936034;29;1164;-76
2022/04/05 04:23:58;;;;;;;;;;;;;;;22.16;23.88;97693.25;4935773;29;1558;-75
2022/04/05 04:26:23;;;;;;;;;;;;;;;22.35;23.37;97688.56;4936136;29;1091;-77
2022/04/05 04:28:50;;;;;;;;;;;;;;;21.90;24.10;97691.66;4897491;29;1294;-76
2022/04/05 04:31:16;;;;;;;;;;;;;;;21.65;24.53;97693.25;4896571;29;1160;-76
2022/04/05 04:33:41;;;;;;;;;;;;;;;21.43;24.94;97698.00;4920163;29;1021;-77
2022/04/05 04:36:06;;;;;;;;;;;;;;;21.73;24.59;97688.19;4936038;29;1030;-74
2022/04/05 04:38:34;;;;;;;;;;;;;;;22.18;23.84;97695.66;4920362;29;1980;-77
2022/04/05 04:41:00;;;;;;;;;;;;;;;22.38;23.73;97693.31;4935893;29;962;-76
2022/04/05 04:43:27;;;;;;;;;;;;;;;21.88;24.13;97694.19;4935871;29;950;-77
2022/04/05 04:45:53;;;;;;;;;;;;;;;21.69;24.53;97696.78;4860100;29;1071;-76
2022/04/05 04:48:19;;;;;;;;;;;;;;;21.46;24.63;97699.94;4841905;29;1035;-76
2022/04/05 04:50:46;;;;;;;;;;;;;;;21.67;24.53;97690.78;4827102;29;1147;-77
2022/04/05 04:53:11;;;;;;;;;;;;;;;22.07;24.21;97695.94;4844637;29;1022;-76
2022/04/05 04:55:36;;;;;;;;;;;;;;;22.32;23.95;97695.13;4860479;29;1006;-76
2022/04/05 04:58:02;;;;;;;;;;;;;;;22.20;23.57;97698.81;4860514;29;1911;-76
2022/04/05 05:00:27;;;;;;;;;;;;;;;21.82;24.41;97696.78;4888929;29;1065;-76
2022/04/05 05:02:53;;;;;;;;;;;;;;;21.62;24.63;97694.19;4897739;29;1040;-76
2022/04/05 05:05:19;;;;;;;;;;;;;;;21.61;24.46;97692.59;4898034;29;1108;-77
2022/04/05 05:07:44;;;;;;;;;;;;;;;21.59;24.62;97695.06;4897774;29;1024;-76
2022/04/05 05:10:11;;;;;;;;;;;;;;;21.47;24.65;97698.69;4897777;29;1003;-76
2022/04/05 05:12:37;;;;;;;;;;;;;;;21.42;25.01;97702.09;4897831;29;1080;-76
2022/04/05 05:15:03;;;;;;;;;;;;;;;21.46;24.95;97691.47;4897669;29;1025;-75
2022/04/05 05:17:29;;;;;;;;;;;;;;;22.05;24.28;97698.44;4943360;28;1051;-75
2022/04/05 05:19:54;;;;;;;;;;;;;;;22.28;23.67;97706.63;4953734;29;1987;-75
2022/04/05 05:22:20;;;;;;;;;;;;;;;22.38;23.75;97703.84;4930572;28;1078;-76
2022/04/05 05:24:45;;;;;;;;;;;;;;;21.98;24.16;97699.50;4999659;28;1003;-76
2022/04/05 05:27:11;;;;;;;;;;;;;;;21.70;24.60;97703.22;4999955;28;1006;-75
2022/04/05 05:29:36;;;;;;;;;;;;;;;21.59;24.57;97700.72;4999434;28;956;-76
2022/04/05 05:32:01;;;;;;;;;;;;;;;21.78;24.44;97701.78;4999640;28;1161;-75
2022/04/05 05:34:27;;;;;;;;;;;;;;;22.09;23.95;97697.09;4999519;28;909;-75
2022/04/05 05:36:52;;;;;;;;;;;;;;;22.37;23.51;97691.72;4999637;28;1004;-77
2022/04/05 05:39:18;;;;;;;;;;;;;;;22.03;24.08;97706.63;4999345;28;1981;-77
2022/04/05 05:41:44;;;;;;;;;;;;;;;21.65;24.51;97703.78;4999371;28;1045;-77
2022/04/05 05:44:09;;;;;;;;;;;;;;;21.52;24.93;97701.75;4999202;28;976;-76
2022/04/05 05:46:35;;;;;;;;;;;;;;;21.62;24.87;97707.53;4999622;28;921;-75
2022/04/05 05:49:00;;;;;;;;;;;;;;;22.01;24.36;97703.44;4999170;28;1015;-77
2022/04/05 05:51:25;;;;;;;;;;;;;;;22.25;23.75;97710.34;4998978;28;1244;-75
2022/04/05 05:53:51;;;;;;;;;;;;;;;22.17;24.03;97703.31;4999157;28;959;-76
2022/04/05 05:56:16;;;;;;;;;;;;;;;21.88;24.44;97699.84;4999073;28;996;-76
2022/04/05 05:58:42;;;;;;;;;;;;;;;21.98;24.58;97705.16;4998751;28;1914;-72
2022/04/05 06:01:07;;;;;;;;;;;;;;;22.22;24.42;97707.63;5010242;28;1655;-73
2022/04/05 06:03:33;;;;;;;;;;;;;;;22.37;24.56;97708.72;5018863;28;1049;-74
2022/04/05 06:05:58;;;;;;;;;;;;;;;22.69;24.40;97707.63;5018814;28;956;-73
2022/04/05 06:08:24;;;;;;;;;;;;;;;22.51;24.98;97698.94;4999865;28;1013;-74
2022/04/05 06:10:49;;;;;;;;;;;;;;;22.52;24.83;97709.03;5018305;28;1461;-73
2022/04/05 06:13:15;;;;;;;;;;;;;;;22.19;25.45;97698.00;5017584;28;1448;-71
2022/04/05 06:15:40;;;;;;;;;;;;;;;21.98;25.70;97698.69;5018407;28;1121;-70
2022/04/05 06:18:06;;;;;;;;;;;;;;;21.71;26.06;97702.78;5017813;28;2013;-71
2022/04/05 06:20:31;;;;;;;;;;;;;;;21.65;26.02;97698.91;5018520;28;960;-70
2022/04/05 06:22:58;;;;;;;;;;;;;;;21.79;25.77;97698.47;5018276;28;866;-71
2022/04/05 06:25:27;;;;;;;;;;;;;;;21.71;25.98;97691.47;5018452;28;981;-71
2022/04/05 06:27:52;;;;;;;;;;;;;;;21.88;25.98;97697.00;5018139;28;1019;-71
2022/04/05 06:30:18;;;;;;;;;;;;;;;21.75;26.09;97692.13;5018211;28;943;-71
2022/04/05 06:32:43;;;;;;;;;;;;;;;21.83;25.62;97696.31;5024707;28;1119;-71
2022/04/05 06:35:09;;;;;;;;;;;;;;;21.83;25.95;97692.69;5037730;28;938;-71
2022/04/05 06:37:38;;;;;;;;;;;;;;;21.75;25.86;97697.78;5037733;28;901;-71
2022/04/05 06:40:04;;;;;;;;;;;;;;;21.73;25.89;97694.63;5037817;28;1921;-71
2022/04/05 06:42:30;;;;;;;;;;;;;;;21.53;26.50;97688.41;5002256;28;1187;-71
2022/04/05 06:44:55;;;;;;;;;;;;;;;21.67;26.20;97693.63;5037535;28;969;-71
2022/04/05 06:47:21;;;;;;;;;;;;;;;21.58;26.26;97687.84;5037536;28;919;-72
2022/04/05 06:49:46;;;;;;;;;;;;;;;22.15;25.90;97696.53;5037572;28;1249;-73
2022/04/05 06:52:11;;;;;;;;;;;;;;;22.35;25.33;97689.34;5037524;28;905;-75
2022/04/05 06:54:37;;;;;;;;;;;;;;;22.30;25.73;97691.97;5037513;28;959;-74
2022/04/05 06:57:03;;;;;;;;;;;;;;;22.50;25.29;97691.69;5037827;28;934;-73
2022/04/05 06:59:29;;;;;;;;;;;;;;;22.50;25.40;97688.88;5037329;28;1981;-71
2022/04/05 07:01:54;;;;;;;;;;;;;;;22.64;25.17;97688.38;5037493;28;980;-74
2022/04/05 07:04:19;;;;;;;;;;;;;;;22.68;25.12;97689.00;5037191;28;940;-73
2022/04/05 07:06:45;;;;;;;;;;;;;;;22.48;25.45;97685.69;5037229;28;1036;-74
2022/04/05 07:09:10;;;;;;;;;;;;;;;22.80;25.02;97691.00;5033473;28;1201;-73
2022/04/05 07:11:37;;;;;;;;;;;;;;;22.74;24.87;97690.03;5017390;28;959;-77
2022/04/05 07:14:03;;;;;;;;;;;;;;;23.01;24.73;97686.63;5017130;28;902;-72
2022/04/05 07:16:28;;;;;;;;;;;;;;;23.15;25.40;97688.13;5017444;28;1135;-73
2022/04/05 07:18:54;;;;;;;;;;;;;;;23.17;24.64;97687.69;5016929;28;1985;-74
2022/04/05 07:21:20;;;;;;;;;;;;;;;23.19;24.47;97688.00;5016790;28;1488;-73
2022/04/05 07:23:47;;;;;;;;;;;;;;;22.96;24.78;97689.28;5017463;28;903;-75
2022/04/05 07:26:12;;;;;;;;;;;;;;;23.20;24.20;97684.69;5018330;28;914;-73
2022/04/05 07:28:38;;;;;;;;;;;;;;;23.25;24.18;97692.59;4966415;28;1032;-77
2022/04/05 07:31:03;;;;;;;;;;;;;;;23.04;24.68;97674.34;5017414;28;902;-73
2022/04/05 07:33:29;;;;;;;;;;;;;;;22.91;24.66;97684.19;5016824;28;1054;-70
2022/04/05 07:35:54;;;;;;;;;;;;;;;22.82;24.96;97688.50;5016376;28;1256;-72
2022/04/05 07:38:20;;;;;;;;;;;;;;;22.63;25.34;97681.09;4994603;28;1915;-72
2022/04/05 07:40:48;;;;;;;;;;;;;;;22.70;25.19;97683.69;4994288;28;955;-72
2022/04/05 07:43:14;;;;;;;;;;;;;;;22.65;24.87;97684.28;4994651;28;1055;-77
2022/04/05 07:45:40;;;;;;;;;;;;;;;22.64;25.00;97682.69;4978374;28;1175;-73
2022/04/05 07:48:05;;;;;;;;;;;;;;;22.54;25.33;97678.19;4994300;28;1018;-73
2022/04/05 07:50:31;;;;;;;;;;;;;;;22.50;25.08;97677.53;4994436;28;1197;-74
2022/04/05 07:52:56;;;;;;;;;;;;;;;22.59;25.15;97680.44;4994345;28;1079;-75
2022/04/05 07:55:22;;;;;;;;;;;;;;;22.53;25.44;97679.44;4994726;28;987;-74
2022/04/05 07:57:49;;;;;;;;;;;;;;;22.56;25.22;97676.47;4994268;28;1276;-74
2022/04/05 08:00:14;;;;;;;;;;;;;;;22.66;25.01;97671.66;4994261;28;1910;-72
2022/04/05 08:02:40;;;;;;;;;;;;;;;22.68;24.95;97672.00;4994007;28;981;-74
2022/04/05 08:05:06;;;;;;;;;;;;;;;22.73;24.98;97671.41;4994102;28;1162;-74
2022/04/05 08:07:31;;;;;;;;;;;;;;;22.68;25.03;97669.16;4994170;28;942;-74
2022/04/05 08:09:57;;;;;;;;;;;;;;;22.62;25.20;97668.16;4993809;28;1504;-76
2022/04/05 08:12:23;;;;;;;;;;;;;;;22.71;24.87;97671.09;4993822;28;1400;-74
2022/04/05 08:14:48;;;;;;;;;;;;;;;22.69;25.16;97667.94;4995975;28;1012;-75
2022/04/05 08:17:14;;;;;;;;;;;;;;;22.61;25.35;97656.03;5014076;28;1053;-74
2022/04/05 08:19:39;;;;;;;;;;;;;;;22.71;25.28;97659.75;5015960;28;1973;-74
2022/04/05 08:22:05;;;;;;;;;;;;;;;22.69;25.16;97653.75;5021249;28;1675;-77
2022/04/05 08:24:30;;;;;;;;;;;;;;;22.68;24.86;97654.97;5026039;28;1574;-75
2022/04/05 08:26:56;;;;;;;;;;;;;;;22.77;25.11;97648.59;5023971;28;1483;-75
2022/04/05 08:29:21;;;;;;;;;;;;;;;22.74;25.20;97641.00;5026051;28;1236;-75
2022/04/05 08:31:47;;;;;;;;;;;;;;;22.44;25.48;97642.50;5014919;28;1494;-76
2022/04/05 08:34:12;;;;;;;;;;;;;;;22.69;25.32;97642.41;5015794;28;1533;-75
2022/04/05 08:36:38;;;;;;;;;;;;;;;22.05;26.01;97636.13;5015427;28;1262;-75
2022/04/05 08:39:03;;;;;;;;;;;;;;;21.94;26.53;97641.38;5015527;28;1907;-75
2022/04/05 08:41:32;;;;;;;;;;;;;;;21.73;26.66;97634.38;5015320;28;1505;-76
2022/04/05 08:43:57;;;;;;;;;;;;;;;21.66;26.57;97629.75;4954609;29;1640;-76
2022/04/05 08:46:23;;;;;;;;;;;;;;;21.67;26.45;97631.31;4927058;29;1334;-75
2022/04/05 08:48:48;;;;;;;;;;;;;;;21.57;26.60;97623.97;4935983;29;1066;-76
2022/04/05 08:51:13;;;;;;;;;;;;;;;21.55;26.63;97623.59;4919335;29;1096;-75
2022/04/05 08:53:39;;;;;;;;;;;;;;;21.59;26.65;97615.81;4935353;29;1032;-76
2022/04/05 08:56:04;;;;;;;;;;;;;;;21.52;26.67;97611.16;4935566;29;956;-76
2022/04/05 08:58:30;;;;;;;;;;;;;;;21.56;26.45;97605.41;4897378;29;1914;-75
2022/04/05 09:00:55;;;;;;;;;;;;;;;21.45;26.73;97611.41;4897639;29;1059;-76
2022/04/05 09:03:22;;;;;;;;;;;;;;;21.47;26.89;97608.13;4879249;29;1186;-76
2022/04/05 09:05:48;;;;;;;;;;;;;;;21.44;26.61;97604.16;4879191;29;973;-75
2022/04/05 09:08:23;;;;;;;;;;;;;;;21.33;26.74;97593.16;4879337;29;1026;-76
2022/04/05 09:10:52;;;;;;;;;;;;;;;21.22;27.11;97604.00;4879102;29;949;-76
2022/04/05 09:13:19;;;;;;;;;;;;;;;21.33;26.80;97598.81;4865135;29;1067;-76
2022/04/05 09:15:46;;;;;;;;;;;;;;;21.17;26.99;97596.09;4909163;29;2203;-77
2022/04/05 09:18:12;;;;;;;;;;;;;;;21.33;26.74;97598.81;4918961;29;1914;-76
2022/04/05 09:20:44;;;;;;;;;;;;;;;21.34;26.63;97593.97;4935533;29;958;-76
2022/04/05 09:23:44;;;;;;;;;;;;;;;21.18;26.98;97597.66;4935699;29;966;-76
2022/04/05 09:26:11;;;;;;;;;;;;;;;21.12;26.81;97585.34;4860679;29;1052;-76
2022/04/05 09:28:41;;;;;;;;;;;;;;;21.08;26.84;97587.47;4865171;29;1035;-76
2022/04/05 09:31:09;;;;;;;;;;;;;;;21.00;27.12;97577.63;4882363;29;1060;-75
2022/04/05 09:33:36;;;;;;;;;;;;;;;20.96;26.94;97585.44;4904598;29;1022;-75
2022/04/05 09:36:03;;;;;;;;;;;;;;;21.14;26.98;97580.03;4929279;29;1050;-75
2022/04/05 09:38:28;;;;;;;;;;;;;;;21.28;26.50;97568.22;4923900;29;1910;-76
2022/04/05 09:40:53;;;;;;;;;;;;;;;21.23;26.92;97565.97;4924402;29;1395;-76
2022/04/05 09:43:21;;;;;;;;;;;;;;;21.17;26.59;97572.66;4926025;29;1204;-75
2022/04/05 09:45:47;;;;;;;;;;;;;;;21.22;26.79;97566.44;4926224;29;1256;-76
2022/04/05 09:48:12;;;;;;;;;;;;;;;21.10;26.65;97562.38;4924151;29;1183;-76
2022/04/05 09:50:57;;;;;;;;;;;;;;;21.13;26.71;97558.63;4925754;29;1231;-77
2022/04/05 09:53:22;;;;;;;;;;;;;;;21.40;26.41;97552.53;4887688;29;1295;-76
2022/04/05 09:55:50;;;;;;;;;;;;;;;21.80;25.66;97549.94;4886761;29;1244;-77
2022/04/05 09:58:15;;;;;;;;;;;;;;;21.73;25.76;97552.25;4884380;29;1910;-77
2022/04/05 10:00:41;;;;;;;;;;;;;;;21.22;26.16;97507.81;4956260;28;1283;-76
2022/04/05 10:03:10;;;;;;;;;;;;;;;21.33;26.56;97547.88;4984220;28;1305;-75
2022/04/05 10:05:35;;;;;;;;;;;;;;;21.09;26.83;97543.81;4983184;28;1195;-76
2022/04/05 10:08:01;;;;;;;;;;;;;;;21.19;26.89;97539.03;4942757;29;1239;-76
2022/04/05 10:10:27;;;;;;;;;;;;;;;21.12;26.75;97531.56;4919355;29;984;-76
2022/04/05 10:12:52;;;;;;;;;;;;;;;20.98;26.85;97537.69;4919356;29;1280;-76
2022/04/05 10:15:21;;;;;;;;;;;;;;;21.00;27.07;97523.91;4918652;29;2085;-76
2022/04/05 10:17:47;;;;;;;;;;;;;;;20.98;27.03;97523.53;4919416;29;982;-77
2022/04/05 10:20:13;;;;;;;;;;;;;;;20.98;26.85;97527.16;4919479;29;1915;-76
2022/04/05 10:22:39;;;;;;;;;;;;;;;21.37;26.55;97513.81;4919459;29;1028;-77
2022/04/05 10:25:05;;;;;;;;;;;;;;;21.75;25.84;97510.88;4919558;29;1019;-76
2022/04/05 10:27:30;;;;;;;;;;;;;;;21.88;25.52;97507.25;4919253;29;1107;-76
2022/04/05 10:30:13;;;;;;;;;;;;;;;21.51;25.90;97515.38;4905961;29;1349;-77
2022/04/05 10:33:17;;;;;;;;;;;;;;;21.14;26.78;97509.31;4900115;29;1034;-76
2022/04/05 10:35:50;;;;;;;;;;;;;;;21.12;26.70;97508.94;4844948;29;1018;-76
2022/04/05 10:38:19;;;;;;;;;;;;;;;20.91;26.95;97507.59;4829257;29;1993;-75
2022/04/05 10:41:07;;;;;;;;;;;;;;;21.07;26.74;97501.03;4852015;29;1101;-76
2022/04/05 10:43:33;;;;;;;;;;;;;;;21.71;25.59;97481.09;4844216;29;1070;-75
2022/04/05 10:45:58;;;;;;;;;;;;;;;21.76;25.64;97489.84;4844369;29;987;-76
2022/04/05 10:48:26;;;;;;;;;;;;;;;21.27;26.29;97487.44;4844125;29;1137;-76
2022/04/05 10:51:00;;;;;;;;;;;;;;;21.14;26.61;97483.84;4844384;29;1110;-76
2022/04/05 10:53:38;;;;;;;;;;;;;;;20.99;26.71;97477.06;4844157;29;1103;-76
2022/04/05 10:56:04;;;;;;;;;;;;;;;21.01;26.58;97474.56;4844498;29;952;-77
2022/04/05 10:58:33;;;;;;;;;;;;;;;21.12;26.65;97477.81;4844154;29;1907;-76
2022/04/05 11:01:20;;;;;;;;;;;;;;;21.02;26.50;97464.81;4844224;29;1160;-77
2022/04/05 11:04:04;;;;;;;;;;;;;;;21.27;26.29;97459.13;4854178;29;924;-76
2022/04/05 11:06:30;;;;;;;;;;;;;;;21.68;25.54;97460.19;4890801;29;1078;-74
2022/04/05 11:08:57;;;;;;;;;;;;;;;21.76;25.41;97450.19;4909951;29;1018;-77
2022/04/05 11:11:23;;;;;;;;;;;;;;;21.33;25.89;97457.34;4937658;29;972;-76
2022/04/05 11:13:51;;;;;;;;;;;;;;;21.11;26.64;97456.44;4921840;29;1555;-76
2022/04/05 11:16:16;;;;;;;;;;;;;;;20.96;26.75;97455.34;4934151;29;960;-76
2022/04/05 11:18:44;;;;;;;;;;;;;;;21.04;26.57;97457.47;4921542;29;1974;-76
2022/04/05 11:21:09;;;;;;;;;;;;;;;21.55;25.91;97454.56;4975181;28;1054;-76
2022/04/05 11:23:50;;;;;;;;;;;;;;;21.82;25.35;97458.88;4995609;28;1044;-75
2022/04/05 11:26:25;;;;;;;;;;;;;;;21.49;25.64;97445.06;4995026;28;1446;-76
2022/04/05 11:28:50;;;;;;;;;;;;;;;21.25;26.33;97441.84;4995199;28;1076;-76
2022/04/05 11:31:28;;;;;;;;;;;;;;;21.04;26.70;97428.41;4995008;28;1015;-76
2022/04/05 11:33:53;;;;;;;;;;;;;;;20.97;26.49;97429.41;4995151;28;967;-76
2022/04/05 11:36:22;;;;;;;;;;;;;;;21.04;26.56;97425.59;4995063;28;1042;-76
2022/04/05 11:38:47;;;;;;;;;;;;;;;21.21;26.37;97427.00;4994837;28;1910;-77
2022/04/05 11:41:25;;;;;;;;;;;;;;;21.74;25.50;97427.19;4994963;28;1238;-76
2022/04/05 11:43:52;;;;;;;;;;;;;;;21.59;25.78;97417.63;4994477;28;1048;-76
2022/04/05 11:46:27;;;;;;;;;;;;;;;21.18;26.05;97422.25;4995138;28;967;-76
2022/04/05 11:48:54;;;;;;;;;;;;;;;21.08;26.41;97417.75;4994652;28;1012;-76
2022/04/05 11:51:23;;;;;;;;;;;;;;;21.10;26.32;97409.63;4994572;28;1171;-77
2022/04/05 11:53:48;;;;;;;;;;;;;;;21.40;26.00;97404.56;4955784;29;1051;-76
2022/04/05 11:56:23;;;;;;;;;;;;;;;21.78;25.45;97402.38;4956032;29;947;-76
2022/04/05 11:58:50;;;;;;;;;;;;;;;21.59;25.65;97403.47;4955457;29;1919;-76
2022/04/05 12:01:18;;;;;;;;;;;;;;;21.47;25.83;97393.78;4955715;28;1017;-76
2022/04/05 12:03:45;;;;;;;;;;;;;;;21.31;25.92;97386.25;4955678;29;944;-75
2022/04/05 12:06:11;;;;;;;;;;;;;;;21.17;26.36;97392.38;4955895;29;1026;-76
2022/04/05 12:08:37;;;;;;;;;;;;;;;21.53;25.85;97379.84;4955725;29;1013;-76
2022/04/05 12:11:04;;;;;;;;;;;;;;;21.85;25.38;97379.44;4955836;28;1008;-76
2022/04/05 12:13:30;;;;;;;;;;;;;;;21.61;25.67;97375.50;4955581;29;1140;-76
2022/04/05 12:15:59;;;;;;;;;;;;;;;21.36;25.98;97381.28;4955700;29;1016;-76
2022/04/05 12:18:27;;;;;;;;;;;;;;;21.15;26.12;97377.91;4955301;29;1899;-76
2022/04/05 12:20:54;;;;;;;;;;;;;;;21.10;26.55;97370.00;4918271;29;1010;-76
2022/04/05 12:23:20;;;;;;;;;;;;;;;21.03;26.63;97367.41;4917264;29;1028;-76
2022/04/05 12:26:04;;;;;;;;;;;;;;;21.29;26.40;97365.28;4950885;28;1229;-75
2022/04/05 12:28:30;;;;;;;;;;;;;;;21.73;25.70;97357.66;4955665;29;1034;-77
2022/04/05 12:31:02;;;;;;;;;;;;;;;21.56;25.66;97356.28;4955313;29;967;-76
2022/04/05 12:33:28;;;;;;;;;;;;;;;21.25;26.33;97348.47;4935991;29;1209;-76
2022/04/05 12:35:54;;;;;;;;;;;;;;;21.10;26.47;97352.25;4935669;29;941;-76
2022/04/05 12:38:20;;;;;;;;;;;;;;;21.11;26.57;97346.13;4935876;29;1906;-76
2022/04/05 12:40:45;;;;;;;;;;;;;;;21.20;26.22;97346.22;4919935;29;1145;-76
2022/04/05 12:43:15;;;;;;;;;;;;;;;21.31;26.17;97343.81;4919975;29;1046;-76
2022/04/05 12:45:40;;;;;;;;;;;;;;;21.65;25.79;97333.69;4935985;29;1085;-76
2022/04/05 12:48:12;;;;;;;;;;;;;;;21.91;25.24;97330.69;4936157;29;1288;-76
2022/04/05 12:50:42;;;;;;;;;;;;;;;21.32;26.26;97338.94;4919738;29;1143;-75
2022/04/05 12:53:08;;;;;;;;;;;;;;;21.19;26.36;97336.16;4955024;29;981;-76
2022/04/05 12:55:34;;;;;;;;;;;;;;;21.07;26.76;97331.31;4971020;28;967;-76
2022/04/05 12:58:00;;;;;;;;;;;;;;;21.13;26.64;97323.81;4955081;29;984;-74